createdAt,value
2023-02-14T00:01:51.488Z,0.05
2023-02-14T00:04:20.173Z,0.03
2023-02-14T00:06:48.888Z,-0.03
2023-02-14T00:09:19.181Z,0.05
2023-02-14T00:11:47.715Z,-0.03
2023-02-14T00:14:34.878Z,0.03
2023-02-14T00:17:04.851Z,0.06
2023-02-14T00:19:34.711Z,0.01
2023-02-14T00:22:03.702Z,0.00
2023-02-14T00:24:33.138Z,0.03
2023-02-14T00:27:01.730Z,0.03
2023-02-14T00:29:32.159Z,0.08
2023-02-14T00:32:00.865Z,0.11
2023-02-14T00:34:30.666Z,0.09
2023-02-14T00:37:00.678Z,0.10
2023-02-14T00:39:29.153Z,0.03
2023-02-14T00:41:57.638Z,0.03
2023-02-14T00:44:26.250Z,-0.01
2023-02-14T00:46:54.707Z,-0.07
2023-02-14T00:49:24.880Z,-0.13
2023-02-14T00:51:54.670Z,-0.15
2023-02-14T00:54:24.362Z,-0.13
2023-02-14T00:56:52.818Z,-0.10
2023-02-14T00:59:21.249Z,-0.10
2023-02-14T01:01:49.777Z,-0.06
2023-02-14T01:04:18.281Z,-0.09
2023-02-14T01:06:47.529Z,-0.12
2023-02-14T01:09:17.421Z,-0.09
2023-02-14T01:11:45.886Z,-0.12
2023-02-14T01:14:16.680Z,-0.12
2023-02-14T01:16:45.180Z,-0.10
2023-02-14T01:19:14.464Z,-0.05
2023-02-14T01:21:45.414Z,-0.06
2023-02-14T01:24:14.169Z,-0.06
2023-02-14T01:26:46.106Z,-0.08
2023-02-14T01:29:14.547Z,-0.12
2023-02-14T01:31:43.063Z,-0.14
2023-02-14T01:34:11.651Z,-0.12
2023-02-14T01:36:40.912Z,-0.12
2023-02-14T01:39:12.470Z,-0.07
2023-02-14T01:41:42.542Z,-0.07
2023-02-14T01:44:44.279Z,-0.06
2023-02-14T01:47:15.044Z,-0.08
2023-02-14T01:49:48.411Z,-0.14
2023-02-14T01:52:20.791Z,-0.15
2023-02-14T01:54:53.281Z,-0.14
2023-02-14T01:57:23.879Z,-0.13
2023-02-14T01:59:56.488Z,-0.21
2023-02-14T02:02:26.418Z,-0.22
2023-02-14T02:04:57.492Z,-0.14
2023-02-14T02:07:30.391Z,-0.14
2023-02-14T02:10:02.640Z,-0.19
2023-02-14T02:12:31.621Z,-0.20
2023-02-14T02:15:01.021Z,-0.18
2023-02-14T02:17:39.334Z,-0.18
2023-02-14T02:20:36.950Z,-0.15
2023-02-14T02:23:53.007Z,-0.20
2023-02-14T02:26:54.700Z,-0.23
2023-02-14T02:30:10.914Z,-0.24
2023-02-14T02:33:15.441Z,-0.24
2023-02-14T02:35:57.340Z,-0.20
2023-02-14T02:38:39.918Z,-0.12
2023-02-14T02:41:23.874Z,-0.20
2023-02-14T02:43:59.450Z,-0.15
2023-02-14T02:46:50.806Z,-0.18
2023-02-14T02:50:00.315Z,-0.24
2023-02-14T02:52:58.295Z,-0.21
2023-02-14T02:55:54.860Z,-0.26
2023-02-14T02:58:27.298Z,-0.21
2023-02-14T03:00:56.485Z,-0.25
2023-02-14T03:03:45.433Z,-0.29
2023-02-14T03:06:13.904Z,-0.30
2023-02-14T03:08:43.698Z,-0.26
2023-02-14T03:11:13.940Z,-0.18
2023-02-14T03:14:02.574Z,-0.27
2023-02-14T03:16:40.512Z,-0.24
2023-02-14T03:19:25.011Z,-0.29
2023-02-14T03:21:56.705Z,-0.25
2023-02-14T03:24:34.570Z,-0.31
2023-02-14T03:27:11.639Z,-0.29
2023-02-14T03:29:50.568Z,-0.32
2023-02-14T03:32:28.474Z,-0.31
2023-02-14T03:35:05.273Z,-0.32
2023-02-14T03:37:37.841Z,-0.37
2023-02-14T03:40:12.098Z,-0.32
2023-02-14T03:42:44.717Z,-0.40
2023-02-14T03:45:18.303Z,-0.40
2023-02-14T03:47:48.421Z,-0.44
2023-02-14T03:50:20.774Z,-0.45
2023-02-14T03:52:52.882Z,-0.52
2023-02-14T03:55:27.886Z,-0.60
2023-02-14T03:58:03.023Z,-0.59
2023-02-14T04:00:34.035Z,-0.58
2023-02-14T04:03:07.205Z,-0.47
2023-02-14T04:05:35.826Z,-0.54
2023-02-14T04:08:04.339Z,-0.48
2023-02-14T04:10:34.322Z,-0.46
2023-02-14T04:13:03.103Z,-0.41
2023-02-14T04:15:31.708Z,-0.43
2023-02-14T04:18:17.606Z,-0.42
2023-02-14T04:20:46.117Z,-0.39
2023-02-14T04:23:14.560Z,-0.38
2023-02-14T04:25:45.629Z,-0.38
2023-02-14T04:28:14.588Z,-0.38
2023-02-14T04:30:43.267Z,-0.31
2023-02-14T04:33:11.825Z,-0.39
2023-02-14T04:35:40.338Z,-0.42
2023-02-14T04:38:09.558Z,-0.43
2023-02-14T04:40:38.038Z,-0.38
2023-02-14T04:43:08.467Z,-0.40
2023-02-14T04:45:37.141Z,-0.39
2023-02-14T04:48:05.559Z,-0.35
2023-02-14T04:50:33.973Z,-0.37
2023-02-14T04:53:02.400Z,-0.37
2023-02-14T04:55:31.216Z,-0.42
2023-02-14T04:57:59.702Z,-0.36
2023-02-14T05:00:29.506Z,-0.37
2023-02-14T05:02:58.005Z,-0.35
2023-02-14T05:05:26.527Z,-0.37
2023-02-14T05:07:54.987Z,-0.39
2023-02-14T05:10:23.518Z,-0.40
2023-02-14T05:12:51.996Z,-0.41
2023-02-14T05:15:20.471Z,-0.43
2023-02-14T05:17:50.248Z,-0.36
2023-02-14T05:20:18.978Z,-0.32
2023-02-14T05:22:47.415Z,-0.39
2023-02-14T05:25:15.833Z,-0.36
2023-02-14T05:27:44.314Z,-0.40
2023-02-14T05:30:14.453Z,-0.37
2023-02-14T05:32:42.954Z,-0.40
2023-02-14T05:35:12.806Z,-0.39
2023-02-14T05:37:41.248Z,-0.40
2023-02-14T05:40:13.374Z,-0.40
2023-02-14T05:42:41.849Z,-0.41
2023-02-14T05:45:11.344Z,-0.39
2023-02-14T05:47:39.832Z,-0.41
2023-02-14T05:50:09.236Z,-0.44
2023-02-14T05:52:39.613Z,-0.41
2023-02-14T05:55:08.517Z,-0.41
2023-02-14T05:57:37.080Z,-0.47
2023-02-14T06:00:06.813Z,-0.45
2023-02-14T06:02:41.760Z,-0.45
2023-02-14T06:05:10.256Z,-0.49
2023-02-14T06:07:40.070Z,-0.46
2023-02-14T06:10:10.367Z,-0.46
2023-02-14T06:12:38.850Z,-0.49
2023-02-14T06:15:07.943Z,-0.50
2023-02-14T06:17:36.367Z,-0.47
2023-02-14T06:20:05.293Z,-0.44
2023-02-14T06:22:33.923Z,-0.41
2023-02-14T06:25:04.026Z,-0.46
2023-02-14T06:27:33.475Z,-0.48
2023-02-14T06:30:02.438Z,-0.48
2023-02-14T06:32:31.924Z,-0.45
2023-02-14T06:35:00.410Z,-0.44
2023-02-14T06:37:28.855Z,-0.46
2023-02-14T06:39:57.323Z,-0.50
2023-02-14T06:42:27.200Z,-0.45
2023-02-14T06:44:55.705Z,-0.48
2023-02-14T06:47:24.247Z,-0.38
2023-02-14T06:49:52.675Z,-0.40
2023-02-14T06:52:21.157Z,-0.44
2023-02-14T06:54:49.591Z,-0.42
2023-02-14T06:57:18.059Z,-0.45
2023-02-14T06:59:47.930Z,-0.47
2023-02-14T07:02:16.515Z,-0.49
2023-02-14T07:04:44.987Z,-0.40
2023-02-14T07:07:13.481Z,-0.39
2023-02-14T07:09:41.970Z,-0.34
2023-02-14T07:12:10.732Z,-0.28
2023-02-14T07:14:39.258Z,-0.28
2023-02-14T07:17:09.071Z,-0.24
2023-02-14T07:19:37.534Z,-0.25
2023-02-14T07:22:06.042Z,-0.23
2023-02-14T07:24:34.507Z,-0.21
2023-02-14T07:27:02.966Z,-0.19
2023-02-14T07:29:31.380Z,-0.09
2023-02-14T07:31:59.900Z,-0.11
2023-02-14T07:34:29.864Z,-0.08
2023-02-14T07:36:58.282Z,-0.03
2023-02-14T07:39:26.738Z,0.00
2023-02-14T07:41:55.137Z,0.02
2023-02-14T07:44:24.507Z,0.03
2023-02-14T07:46:53.077Z,0.10
2023-02-14T07:49:22.297Z,0.18
2023-02-14T07:51:52.170Z,0.21
2023-02-14T07:54:21.294Z,0.28
2023-02-14T07:56:50.595Z,0.29
2023-02-14T07:59:18.994Z,0.35
2023-02-14T08:01:47.624Z,0.46
2023-02-14T08:04:16.288Z,0.53
2023-02-14T08:06:44.954Z,0.59
2023-02-14T08:09:24.603Z,0.67
2023-02-14T08:12:11.695Z,0.79
2023-02-14T08:14:40.143Z,0.95
2023-02-14T08:17:10.068Z,1.04
2023-02-14T08:19:38.584Z,1.23
2023-02-14T08:22:08.138Z,1.30
2023-02-14T08:24:37.959Z,1.38
2023-02-14T08:27:06.474Z,1.55
2023-02-14T08:29:34.878Z,1.57
2023-02-14T08:32:03.472Z,1.71
2023-02-14T08:34:32.057Z,1.83
2023-02-14T08:37:00.572Z,1.96
2023-02-14T08:39:29.050Z,2.03
2023-02-14T08:41:58.862Z,2.25
2023-02-14T08:44:27.572Z,2.36
2023-02-14T08:46:56.151Z,2.40
2023-02-14T08:49:24.713Z,2.48
2023-02-14T08:51:54.580Z,2.54
2023-02-14T08:54:23.074Z,2.80
2023-02-14T08:56:51.612Z,2.83
2023-02-14T08:59:21.520Z,3.02
2023-02-14T09:01:50.005Z,3.30
2023-02-14T09:04:18.546Z,3.27
2023-02-14T09:06:47.011Z,3.42
2023-02-14T09:09:17.376Z,3.39
2023-02-14T09:11:46.131Z,3.79
2023-02-14T09:14:16.297Z,3.86
2023-02-14T09:16:46.086Z,4.05
2023-02-14T09:19:14.806Z,4.25
2023-02-14T09:21:43.293Z,4.21
2023-02-14T09:24:11.920Z,4.48
2023-02-14T09:26:42.154Z,4.59
2023-02-14T09:29:13.237Z,4.70
2023-02-14T09:31:41.777Z,4.72
2023-02-14T09:34:11.774Z,4.71
2023-02-14T09:36:57.741Z,4.98
2023-02-14T09:39:26.272Z,5.13
2023-02-14T09:42:09.542Z,5.21
2023-02-14T09:44:40.966Z,5.51
2023-02-14T09:47:18.018Z,5.65
2023-02-14T09:49:48.699Z,5.92
2023-02-14T09:52:21.232Z,5.82
2023-02-14T09:54:55.279Z,5.96
2023-02-14T09:57:28.988Z,6.35
2023-02-14T10:00:03.914Z,6.68
2023-02-14T10:02:44.663Z,6.91
2023-02-14T10:05:20.482Z,7.14
2023-02-14T10:07:58.538Z,7.26
2023-02-14T10:10:32.608Z,7.14
2023-02-14T10:13:07.619Z,7.49
2023-02-14T10:15:41.022Z,7.47
2023-02-14T10:18:13.500Z,7.77
2023-02-14T10:20:47.223Z,7.94
2023-02-14T10:23:28.379Z,8.01
2023-02-14T10:26:01.653Z,7.72
2023-02-14T10:28:36.015Z,7.95
2023-02-14T10:31:17.617Z,7.91
2023-02-14T10:33:53.242Z,8.01
2023-02-14T10:36:36.106Z,8.54
2023-02-14T10:39:17.852Z,8.77
2023-02-14T10:41:51.746Z,8.87
2023-02-14T10:44:39.508Z,8.62
2023-02-14T10:47:21.100Z,8.56
2023-02-14T10:49:57.455Z,9.36
2023-02-14T10:52:34.372Z,9.76
2023-02-14T10:55:20.270Z,9.57
2023-02-14T10:57:58.794Z,9.44
2023-02-14T11:00:32.270Z,9.84
2023-02-14T11:03:05.465Z,9.98
2023-02-14T11:05:35.818Z,9.77
2023-02-14T11:08:15.200Z,9.47
2023-02-14T11:10:43.824Z,9.60
2023-02-14T11:13:33.476Z,9.36
2023-02-14T11:16:05.252Z,9.16
2023-02-14T11:18:35.986Z,9.19
2023-02-14T11:21:08.254Z,9.75
2023-02-14T11:23:40.860Z,9.64
2023-02-14T11:26:21.774Z,9.68
2023-02-14T11:28:54.979Z,10.30
2023-02-14T11:31:29.387Z,10.59
2023-02-14T11:33:58.988Z,10.40
2023-02-14T11:36:28.225Z,10.43
2023-02-14T11:39:06.304Z,10.51
2023-02-14T11:41:48.659Z,10.71
2023-02-14T11:44:22.639Z,10.99
2023-02-14T11:46:53.900Z,11.32
2023-02-14T11:49:32.024Z,11.40
2023-02-14T11:52:10.293Z,11.46
2023-02-14T11:54:41.764Z,11.34
2023-02-14T11:57:15.682Z,11.49
2023-02-14T11:59:47.941Z,11.48
2023-02-14T12:02:26.120Z,11.15
2023-02-14T12:04:59.232Z,11.50
2023-02-14T12:07:30.964Z,11.87
2023-02-14T12:10:25.585Z,11.65
2023-02-14T12:12:59.080Z,11.74
2023-02-14T12:15:37.735Z,12.08
2023-02-14T12:18:44.590Z,11.96
2023-02-14T12:21:27.089Z,11.76
2023-02-14T12:24:04.342Z,12.11
2023-02-14T12:26:36.023Z,11.80
2023-02-14T12:29:13.820Z,11.64
2023-02-14T12:31:43.154Z,12.41
2023-02-14T12:34:14.014Z,12.63
2023-02-14T12:37:03.126Z,12.67
2023-02-14T12:39:38.939Z,12.66
2023-02-14T12:42:26.748Z,12.55
2023-02-14T12:45:06.107Z,12.28
2023-02-14T12:47:45.262Z,12.07
2023-02-14T12:50:28.896Z,12.76
2023-02-14T12:53:20.409Z,12.64
2023-02-14T12:55:57.000Z,12.52
2023-02-14T12:58:34.116Z,12.49
2023-02-14T13:01:21.727Z,12.56
2023-02-14T13:04:20.878Z,12.49
2023-02-14T13:06:52.697Z,12.70
2023-02-14T13:09:35.067Z,12.65
2023-02-14T13:12:14.175Z,12.94
2023-02-14T13:14:56.575Z,13.19
2023-02-14T13:17:34.829Z,13.37
2023-02-14T13:20:24.808Z,13.38
2023-02-14T13:22:56.378Z,13.53
2023-02-14T13:25:31.638Z,13.26
2023-02-14T13:28:01.459Z,13.25
2023-02-14T13:30:32.064Z,13.54
2023-02-14T13:33:07.252Z,13.00
2023-02-14T13:35:36.213Z,13.09
2023-02-14T13:38:09.440Z,13.23
2023-02-14T13:40:38.621Z,12.80
2023-02-14T13:43:07.059Z,12.66
2023-02-14T13:45:56.511Z,12.86
2023-02-14T13:48:28.557Z,13.14
2023-02-14T13:50:59.968Z,13.17
2023-02-14T13:53:38.500Z,13.11
2023-02-14T13:56:34.798Z,13.12
2023-02-14T13:59:06.863Z,13.13
2023-02-14T14:01:39.646Z,13.24
2023-02-14T14:04:36.920Z,13.44
2023-02-14T14:07:27.101Z,13.63
2023-02-14T14:10:04.194Z,13.48
2023-02-14T14:12:40.902Z,13.47
2023-02-14T14:15:18.390Z,13.15
2023-02-14T14:18:03.362Z,13.04
2023-02-14T14:20:43.173Z,12.87
2023-02-14T14:23:32.016Z,12.86
2023-02-14T14:26:02.253Z,13.08
2023-02-14T14:28:33.189Z,13.11
2023-02-14T14:31:02.055Z,12.99
2023-02-14T14:33:32.468Z,13.00
2023-02-14T14:36:07.668Z,13.02
2023-02-14T14:38:47.459Z,13.10
2023-02-14T14:41:16.080Z,12.55
2023-02-14T14:43:44.881Z,12.52
2023-02-14T14:46:15.806Z,12.58
2023-02-14T14:48:46.842Z,12.43
2023-02-14T14:51:24.822Z,12.48
2023-02-14T14:53:56.962Z,12.40
2023-02-14T14:56:27.836Z,12.58
2023-02-14T14:58:56.465Z,12.52
2023-02-14T15:01:34.284Z,12.21
2023-02-14T15:04:12.337Z,12.39
2023-02-14T15:06:43.447Z,12.34
2023-02-14T15:09:14.252Z,11.83
2023-02-14T15:12:01.804Z,11.74
2023-02-14T15:14:33.648Z,11.53
2023-02-14T15:17:04.378Z,11.54
2023-02-14T15:19:38.516Z,11.35
2023-02-14T15:22:19.402Z,11.17
2023-02-14T15:24:48.380Z,11.05
2023-02-14T15:27:19.132Z,11.08
2023-02-14T15:29:59.193Z,10.81
2023-02-14T15:32:31.430Z,10.74
2023-02-14T15:35:03.061Z,10.50
2023-02-14T15:37:34.217Z,10.26
2023-02-14T15:40:03.235Z,10.12
2023-02-14T15:42:34.315Z,9.97
2023-02-14T15:45:16.584Z,9.79
2023-02-14T15:47:47.825Z,9.54
2023-02-14T15:50:18.964Z,9.45
2023-02-14T15:52:49.452Z,9.22
2023-02-14T15:55:20.992Z,9.75
2023-02-14T15:57:55.968Z,9.12
2023-02-14T16:00:25.589Z,8.88
2023-02-14T16:02:57.383Z,8.67
2023-02-14T16:05:27.906Z,8.54
2023-02-14T16:08:03.486Z,8.46
2023-02-14T16:10:33.481Z,8.29
2023-02-14T16:13:03.472Z,8.14
2023-02-14T16:15:34.081Z,7.89
2023-02-14T16:18:07.894Z,7.71
2023-02-14T16:20:46.889Z,7.51
2023-02-14T16:23:23.189Z,7.32
2023-02-14T16:25:52.234Z,7.23
2023-02-14T16:28:22.308Z,7.08
2023-02-14T16:30:56.258Z,6.69
2023-02-14T16:33:28.269Z,6.65
2023-02-14T16:36:09.212Z,6.39
2023-02-14T16:38:43.819Z,6.37
2023-02-14T16:41:18.489Z,6.15
2023-02-14T16:43:47.748Z,6.04
2023-02-14T16:46:18.569Z,6.04
2023-02-14T16:48:47.118Z,5.82
2023-02-14T16:51:16.588Z,5.73
2023-02-14T16:53:46.717Z,5.50
2023-02-14T16:56:17.932Z,5.41
2023-02-14T16:58:46.868Z,5.14
2023-02-14T17:01:15.435Z,5.05
2023-02-14T17:03:44.579Z,4.76
2023-02-14T17:06:15.922Z,4.67
2023-02-14T17:08:47.800Z,4.55
2023-02-14T17:11:16.794Z,4.47
2023-02-14T17:13:46.941Z,4.32
2023-02-14T17:16:15.795Z,4.11
2023-02-14T17:18:46.196Z,4.02
2023-02-14T17:21:15.889Z,3.85
2023-02-14T17:23:45.778Z,3.88
2023-02-14T17:26:14.316Z,3.81
2023-02-14T17:28:42.720Z,3.73
2023-02-14T17:31:11.820Z,3.63
2023-02-14T17:33:40.251Z,3.51
2023-02-14T17:36:11.999Z,3.45
2023-02-14T17:38:43.396Z,3.35
2023-02-14T17:41:15.197Z,3.29
2023-02-14T17:43:43.941Z,3.18
2023-02-14T17:46:14.247Z,3.06
2023-02-14T17:48:45.325Z,3.02
2023-02-14T17:51:15.132Z,2.98
2023-02-14T17:53:44.078Z,2.83
2023-02-14T17:56:17.684Z,2.85
2023-02-14T17:58:47.749Z,2.76
2023-02-14T18:01:17.992Z,2.65
2023-02-14T18:03:47.271Z,2.53
2023-02-14T18:06:16.585Z,2.54
2023-02-14T18:08:49.307Z,2.40
2023-02-14T18:11:20.999Z,2.36
2023-02-14T18:13:50.548Z,2.35
2023-02-14T18:16:20.309Z,2.27
2023-02-14T18:18:49.275Z,2.23
2023-02-14T18:21:20.878Z,2.18
2023-02-14T18:23:49.471Z,2.12
2023-02-14T18:26:19.646Z,2.02
2023-02-14T18:28:48.922Z,1.96
2023-02-14T18:31:18.592Z,1.94
2023-02-14T18:33:48.776Z,1.88
2023-02-14T18:36:19.865Z,1.84
2023-02-14T18:38:52.657Z,1.85
2023-02-14T18:41:23.554Z,1.85
2023-02-14T18:43:53.082Z,1.81
2023-02-14T18:46:23.473Z,1.80
2023-02-14T18:48:52.461Z,1.85
2023-02-14T18:51:26.157Z,1.86
2023-02-14T18:53:56.273Z,1.83
2023-02-14T18:56:28.684Z,1.79
2023-02-14T18:58:59.187Z,1.80
2023-02-14T19:01:30.485Z,1.74
2023-02-14T19:04:01.236Z,1.66
2023-02-14T19:06:31.922Z,1.64
2023-02-14T19:09:01.345Z,1.56
2023-02-14T19:11:32.775Z,1.54
2023-02-14T19:14:02.683Z,1.46
2023-02-14T19:16:34.024Z,1.47
2023-02-14T19:19:03.059Z,1.43
2023-02-14T19:21:33.574Z,1.42
2023-02-14T19:24:03.928Z,1.42
2023-02-14T19:26:34.985Z,1.36
2023-02-14T19:29:06.855Z,1.31
2023-02-14T19:31:36.486Z,1.29
2023-02-14T19:34:06.228Z,1.28
2023-02-14T19:36:36.309Z,1.22
2023-02-14T19:39:07.972Z,1.15
2023-02-14T19:41:37.809Z,1.18
2023-02-14T19:44:08.380Z,1.14
2023-02-14T19:46:38.193Z,1.12
2023-02-14T19:49:06.894Z,1.07
2023-02-14T19:51:36.948Z,1.02
2023-02-14T19:54:09.701Z,1.07
2023-02-14T19:56:41.545Z,1.05
2023-02-14T19:59:11.057Z,1.04
2023-02-14T20:01:41.967Z,1.05
2023-02-14T20:04:14.599Z,1.04
2023-02-14T20:06:44.823Z,1.00
2023-02-14T20:09:13.648Z,1.06
2023-02-14T20:11:50.016Z,0.98
2023-02-14T20:14:20.287Z,1.01
2023-02-14T20:16:49.523Z,1.04
2023-02-14T20:19:20.403Z,1.02
2023-02-14T20:21:50.943Z,0.98
2023-02-14T20:24:21.328Z,0.98
2023-02-14T20:26:51.715Z,0.97
2023-02-14T20:29:22.599Z,0.99
2023-02-14T20:31:52.961Z,0.93
2023-02-14T20:34:22.086Z,0.92
2023-02-14T20:36:53.272Z,0.88
2023-02-14T20:39:24.412Z,0.91
2023-02-14T20:41:54.428Z,0.87
2023-02-14T20:44:23.588Z,0.92
2023-02-14T20:46:53.635Z,0.94
2023-02-14T20:49:23.977Z,0.97
2023-02-14T20:51:52.851Z,0.98
2023-02-14T20:54:22.893Z,0.92
2023-02-14T20:56:51.625Z,0.91
2023-02-14T20:59:26.737Z,0.85
2023-02-14T21:01:55.876Z,0.82
2023-02-14T21:04:25.501Z,0.79
2023-02-14T21:06:54.446Z,0.79
2023-02-14T21:09:23.036Z,0.79
2023-02-14T21:11:53.746Z,0.82
2023-02-14T21:14:23.674Z,0.78
2023-02-14T21:16:52.294Z,0.72
2023-02-14T21:19:20.935Z,0.73
2023-02-14T21:21:49.334Z,0.75
2023-02-14T21:24:18.443Z,0.71
2023-02-14T21:26:46.979Z,0.65
2023-02-14T21:29:15.483Z,0.70
2023-02-14T21:31:45.400Z,0.66
2023-02-14T21:34:16.116Z,0.74
2023-02-14T21:36:44.844Z,0.76
2023-02-14T21:39:13.606Z,0.81
2023-02-14T21:41:42.288Z,0.80
2023-02-14T21:44:31.215Z,0.80
2023-02-14T21:47:00.927Z,0.86
2023-02-14T21:49:46.894Z,0.83
2023-02-14T21:52:15.333Z,0.77
2023-02-14T21:54:43.979Z,0.77
2023-02-14T21:57:12.414Z,0.73
2023-02-14T21:59:41.676Z,0.77
2023-02-14T22:02:13.126Z,0.80
2023-02-14T22:04:43.133Z,0.78
2023-02-14T22:07:11.595Z,0.79
2023-02-14T22:09:40.118Z,0.79
2023-02-14T22:12:09.030Z,0.86
2023-02-14T22:14:37.573Z,0.78
2023-02-14T22:17:06.038Z,0.85
2023-02-14T22:19:36.728Z,0.82
2023-02-14T22:22:05.477Z,0.73
2023-02-14T22:24:33.900Z,0.70
2023-02-14T22:27:02.378Z,0.70
2023-02-14T22:29:30.907Z,0.74
2023-02-14T22:31:59.484Z,0.67
2023-02-14T22:34:28.069Z,0.75
2023-02-14T22:36:57.844Z,0.68
2023-02-14T22:39:26.299Z,0.69
2023-02-14T22:41:54.820Z,0.65
2023-02-14T22:44:23.323Z,0.60
2023-02-14T22:46:51.867Z,0.54
2023-02-14T22:49:20.304Z,0.57
2023-02-14T22:51:48.794Z,0.53
2023-02-14T22:54:18.775Z,0.43
2023-02-14T22:56:49.032Z,0.35
2023-02-14T22:59:19.462Z,0.32
2023-02-14T23:01:48.637Z,0.30
2023-02-14T23:04:18.790Z,0.25
2023-02-14T23:06:47.211Z,0.26
2023-02-14T23:09:17.687Z,0.21
2023-02-14T23:11:47.387Z,0.14
2023-02-14T23:14:35.255Z,0.08
2023-02-14T23:17:21.277Z,0.11
2023-02-14T23:20:07.220Z,0.13
2023-02-14T23:22:38.185Z,0.06
2023-02-14T23:25:10.862Z,-0.01
2023-02-14T23:27:40.920Z,0.03
2023-02-14T23:30:14.181Z,0.05
2023-02-14T23:32:43.043Z,0.09
2023-02-14T23:35:11.614Z,0.03
2023-02-14T23:37:40.228Z,0.03
2023-02-14T23:40:10.989Z,0.00
2023-02-14T23:42:39.505Z,-0.04
2023-02-14T23:45:26.428Z,-0.19
2023-02-14T23:47:54.964Z,-0.18
2023-02-14T23:50:23.384Z,-0.14
2023-02-14T23:52:51.849Z,-0.19
2023-02-14T23:55:21.711Z,-0.31
2023-02-14T23:57:50.167Z,-0.26
